createdAt,value
2023-02-22T00:00:22.363Z,38.67
2023-02-22T00:00:49.162Z,38.88
2023-02-22T00:01:28.643Z,38.33
2023-02-22T00:01:51.845Z,38.30
2023-02-22T00:02:27.361Z,38.75
2023-02-22T00:03:00.089Z,37.85
2023-02-22T00:03:28.073Z,38.30
2023-02-22T00:03:53.819Z,37.45
2023-02-22T00:04:19.621Z,40.03
2023-02-22T00:04:42.182Z,36.78
2023-02-22T00:05:05.453Z,35.53
2023-02-22T00:05:31.790Z,37.70
2023-02-22T00:06:05.781Z,36.50
2023-02-22T00:06:29.219Z,38.75
2023-02-22T00:06:52.059Z,36.30
2023-02-22T00:07:15.246Z,37.00
2023-02-22T00:07:37.781Z,38.38
2023-02-22T00:08:01.223Z,38.85
2023-02-22T00:08:31.519Z,40.55
2023-02-22T00:08:56.007Z,38.40
2023-02-22T00:09:21.794Z,37.35
2023-02-22T00:09:44.293Z,36.65
2023-02-22T00:10:13.560Z,38.17
2023-02-22T00:10:38.748Z,37.55
2023-02-22T00:11:09.814Z,37.25
2023-02-22T00:11:32.398Z,36.15
2023-02-22T00:11:55.018Z,37.15
2023-02-22T00:12:17.628Z,37.40
2023-02-22T00:12:44.443Z,37.85
2023-02-22T00:13:11.648Z,36.67
2023-02-22T00:13:34.631Z,36.47
2023-02-22T00:13:57.541Z,36.50
2023-02-22T00:14:21.529Z,36.97
2023-02-22T00:14:44.171Z,36.97
2023-02-22T00:15:07.195Z,35.80
2023-02-22T00:15:32.453Z,29.48
2023-02-22T00:15:58.368Z,27.58
2023-02-22T00:16:23.955Z,27.15
2023-02-22T00:16:46.702Z,27.33
2023-02-22T00:17:09.509Z,28.35
2023-02-22T00:17:32.449Z,27.80
2023-02-22T00:17:57.480Z,30.15
2023-02-22T00:18:20.424Z,29.90
2023-02-22T00:18:44.692Z,32.67
2023-02-22T00:19:07.981Z,32.97
2023-02-22T00:19:31.446Z,34.33
2023-02-22T00:19:55.982Z,35.63
2023-02-22T00:20:19.576Z,37.13
2023-02-22T00:20:42.681Z,37.35
2023-02-22T00:21:10.928Z,37.53
2023-02-22T00:21:33.455Z,39.03
2023-02-22T00:21:57.799Z,38.67
2023-02-22T00:22:20.846Z,38.00
2023-02-22T00:22:52.042Z,38.38
2023-02-22T00:23:20.001Z,39.33
2023-02-22T00:23:48.011Z,39.92
2023-02-22T00:24:24.453Z,40.38
2023-02-22T00:24:48.954Z,38.95
2023-02-22T00:25:12.981Z,39.50
2023-02-22T00:25:36.858Z,40.10
2023-02-22T00:26:01.524Z,40.10
2023-02-22T00:26:24.205Z,39.38
2023-02-22T00:26:47.315Z,39.05
2023-02-22T00:27:11.356Z,39.47
2023-02-22T00:27:33.961Z,40.35
2023-02-22T00:27:56.540Z,39.75
2023-02-22T00:28:20.062Z,39.65
2023-02-22T00:28:43.520Z,40.50
2023-02-22T00:29:06.125Z,39.85
2023-02-22T00:29:29.088Z,38.90
2023-02-22T00:29:52.197Z,36.55
2023-02-22T00:30:27.338Z,35.50
2023-02-22T00:30:53.141Z,33.67
2023-02-22T00:31:17.376Z,33.97
2023-02-22T00:31:40.274Z,33.20
2023-02-22T00:32:03.031Z,32.65
2023-02-22T00:32:25.847Z,32.80
2023-02-22T00:32:51.034Z,35.33
2023-02-22T00:33:15.810Z,34.75
2023-02-22T00:33:40.798Z,34.70
2023-02-22T00:34:03.553Z,35.15
2023-02-22T00:34:27.870Z,35.65
2023-02-22T00:34:54.278Z,35.92
2023-02-22T00:35:21.555Z,37.00
2023-02-22T00:35:46.373Z,35.85
2023-02-22T00:36:12.911Z,34.30
2023-02-22T00:36:37.554Z,33.15
2023-02-22T00:37:03.114Z,31.58
2023-02-22T00:37:25.641Z,30.40
2023-02-22T00:37:52.182Z,29.48
2023-02-22T00:38:19.021Z,29.55
2023-02-22T00:38:42.934Z,29.60
2023-02-22T00:39:05.563Z,29.05
2023-02-22T00:39:29.401Z,29.38
2023-02-22T00:39:53.186Z,26.92
2023-02-22T00:40:24.652Z,26.27
2023-02-22T00:40:47.264Z,26.13
2023-02-22T00:41:12.184Z,28.67
2023-02-22T00:41:34.763Z,28.70
2023-02-22T00:41:59.563Z,28.15
2023-02-22T00:42:23.013Z,27.65
2023-02-22T00:42:46.726Z,27.80
2023-02-22T00:43:10.234Z,27.27
2023-02-22T00:43:33.601Z,26.58
2023-02-22T00:43:56.200Z,25.13
2023-02-22T00:44:20.123Z,24.73
2023-02-22T00:44:42.898Z,22.98
2023-02-22T00:45:08.890Z,24.00
2023-02-22T00:45:38.539Z,24.95
2023-02-22T00:46:01.546Z,26.58
2023-02-22T00:46:24.083Z,25.23
2023-02-22T00:46:50.952Z,26.10
2023-02-22T00:47:13.616Z,24.95
2023-02-22T00:47:37.126Z,24.98
2023-02-22T00:48:01.413Z,25.27
2023-02-22T00:48:24.076Z,26.23
2023-02-22T00:48:49.077Z,25.38
2023-02-22T00:49:13.507Z,26.20
2023-02-22T00:49:38.367Z,26.08
2023-02-22T00:50:01.106Z,25.95
2023-02-22T00:50:28.105Z,26.13
2023-02-22T00:50:55.523Z,25.42
2023-02-22T00:51:19.866Z,26.23
2023-02-22T00:51:42.934Z,25.83
2023-02-22T00:52:06.107Z,25.88
2023-02-22T00:52:29.342Z,25.92
2023-02-22T00:52:53.163Z,26.10
2023-02-22T00:53:16.948Z,26.35
2023-02-22T00:53:39.798Z,25.95
2023-02-22T00:54:02.697Z,26.33
2023-02-22T00:54:25.893Z,25.55
2023-02-22T00:54:48.741Z,25.70
2023-02-22T00:55:21.068Z,27.17
2023-02-22T00:55:43.613Z,27.27
2023-02-22T00:56:07.064Z,27.25
2023-02-22T00:56:34.581Z,27.45
2023-02-22T00:56:58.510Z,27.80
2023-02-22T00:57:25.178Z,41.20
2023-02-22T00:57:48.079Z,76.60
2023-02-22T00:58:11.115Z,90.20
2023-02-22T00:58:34.069Z,54.38
2023-02-22T00:58:56.735Z,72.68
2023-02-22T00:59:19.283Z,64.72
2023-02-22T00:59:41.905Z,56.65
2023-02-22T01:00:18.502Z,50.75
2023-02-22T01:00:45.467Z,47.45
2023-02-22T01:01:11.172Z,43.53
2023-02-22T01:01:34.988Z,36.65
2023-02-22T01:01:58.806Z,31.25
2023-02-22T01:02:21.784Z,30.13
2023-02-22T01:02:44.472Z,29.02
2023-02-22T01:03:16.789Z,29.48
2023-02-22T01:03:41.648Z,29.40
2023-02-22T01:04:04.902Z,27.73
2023-02-22T01:04:27.666Z,28.77
2023-02-22T01:04:51.055Z,28.20
2023-02-22T01:05:15.092Z,27.98
2023-02-22T01:05:39.912Z,28.92
2023-02-22T01:06:02.740Z,28.98
2023-02-22T01:06:27.176Z,29.55
2023-02-22T01:06:50.963Z,28.58
2023-02-22T01:07:14.579Z,28.95
2023-02-22T01:07:37.692Z,28.70
2023-02-22T01:08:02.910Z,27.98
2023-02-22T01:08:25.494Z,28.65
2023-02-22T01:08:49.796Z,28.33
2023-02-22T01:09:13.421Z,29.17
2023-02-22T01:09:37.844Z,30.52
2023-02-22T01:10:01.583Z,35.47
2023-02-22T01:10:30.255Z,38.05
2023-02-22T01:10:53.939Z,36.45
2023-02-22T01:11:18.955Z,36.83
2023-02-22T01:11:41.855Z,34.63
2023-02-22T01:12:04.827Z,33.17
2023-02-22T01:12:30.450Z,31.48
2023-02-22T01:12:54.967Z,36.38
2023-02-22T01:13:19.427Z,38.60
2023-02-22T01:13:45.532Z,37.30
2023-02-22T01:14:10.416Z,36.40
2023-02-22T01:14:33.554Z,36.28
2023-02-22T01:14:58.472Z,38.20
2023-02-22T01:15:32.335Z,38.85
2023-02-22T01:15:56.970Z,39.15
2023-02-22T01:16:19.771Z,40.13
2023-02-22T01:16:42.360Z,38.55
2023-02-22T01:17:05.619Z,37.33
2023-02-22T01:17:29.481Z,33.65
2023-02-22T01:17:54.350Z,32.45
2023-02-22T01:18:17.535Z,32.60
2023-02-22T01:18:40.208Z,30.13
2023-02-22T01:19:02.833Z,30.45
2023-02-22T01:19:27.022Z,30.38
2023-02-22T01:19:50.982Z,29.02
2023-02-22T01:20:13.643Z,29.05
2023-02-22T01:20:37.599Z,29.95
2023-02-22T01:21:01.589Z,29.38
2023-02-22T01:21:24.838Z,31.30
2023-02-22T01:21:51.202Z,35.83
2023-02-22T01:22:13.763Z,38.47
2023-02-22T01:22:37.632Z,39.25
2023-02-22T01:23:03.963Z,34.22
2023-02-22T01:23:26.608Z,31.00
2023-02-22T01:23:49.433Z,31.27
2023-02-22T01:24:17.104Z,30.92
2023-02-22T01:24:54.305Z,32.50
2023-02-22T01:25:34.531Z,32.63
2023-02-22T01:26:23.367Z,40.42
2023-02-22T01:26:55.720Z,38.42
2023-02-22T01:27:24.068Z,37.05
2023-02-22T01:27:50.482Z,42.80
2023-02-22T01:28:14.294Z,45.63
2023-02-22T01:28:39.049Z,46.10
2023-02-22T01:29:02.118Z,46.28
2023-02-22T01:29:24.768Z,47.13
2023-02-22T01:29:51.302Z,48.95
2023-02-22T01:30:18.553Z,49.40
2023-02-22T01:30:45.091Z,50.88
2023-02-22T01:31:07.811Z,49.20
2023-02-22T01:31:31.353Z,48.75
2023-02-22T01:31:57.288Z,47.13
2023-02-22T01:32:21.543Z,48.03
2023-02-22T01:32:45.397Z,48.42
2023-02-22T01:33:08.962Z,48.03
2023-02-22T01:33:34.133Z,47.05
2023-02-22T01:33:58.287Z,45.67
2023-02-22T01:34:23.317Z,42.50
2023-02-22T01:34:46.654Z,35.33
2023-02-22T01:35:16.225Z,34.92
2023-02-22T01:35:43.176Z,37.53
2023-02-22T01:36:11.695Z,39.65
2023-02-22T01:36:34.314Z,42.95
2023-02-22T01:36:58.849Z,41.90
2023-02-22T01:37:22.544Z,39.03
2023-02-22T01:37:45.947Z,42.20
2023-02-22T01:38:11.228Z,41.45
2023-02-22T01:38:35.463Z,40.03
2023-02-22T01:38:59.311Z,40.58
2023-02-22T01:39:23.594Z,41.67
2023-02-22T01:39:46.350Z,38.90
2023-02-22T01:40:17.388Z,37.85
2023-02-22T01:40:43.000Z,36.45
2023-02-22T01:41:06.301Z,35.55
2023-02-22T01:41:29.571Z,34.10
2023-02-22T01:41:55.743Z,34.97
2023-02-22T01:42:18.386Z,34.83
2023-02-22T01:42:40.924Z,34.28
2023-02-22T01:43:32.558Z,33.08
2023-02-22T01:43:55.063Z,33.42
2023-02-22T01:44:32.691Z,33.58
2023-02-22T01:45:35.423Z,32.97
2023-02-22T01:46:05.249Z,32.47
2023-02-22T01:46:31.290Z,33.15
2023-02-22T01:46:57.785Z,34.17
2023-02-22T01:47:21.052Z,34.00
2023-02-22T01:47:43.744Z,34.45
2023-02-22T01:48:25.188Z,35.75
2023-02-22T01:49:03.314Z,37.30
2023-02-22T01:49:39.921Z,36.78
2023-02-22T01:50:03.521Z,34.97
2023-02-22T01:50:29.763Z,35.22
2023-02-22T01:51:11.332Z,35.03
2023-02-22T01:51:44.323Z,35.47
2023-02-22T01:52:14.772Z,34.85
2023-02-22T01:52:38.604Z,34.78
2023-02-22T01:53:03.741Z,35.80
2023-02-22T01:53:37.316Z,35.00
2023-02-22T01:54:31.757Z,33.22
2023-02-22T01:55:00.703Z,33.22
2023-02-22T01:55:24.229Z,32.30
2023-02-22T01:55:51.257Z,26.75
2023-02-22T01:56:17.785Z,24.23
2023-02-22T01:56:54.561Z,24.38
2023-02-22T01:57:27.075Z,27.70
2023-02-22T01:57:51.298Z,26.73
2023-02-22T01:58:17.097Z,27.45
2023-02-22T01:58:51.362Z,32.38
2023-02-22T01:59:15.516Z,33.03
2023-02-22T01:59:44.898Z,34.35
2023-02-22T02:00:24.659Z,33.40
2023-02-22T02:00:48.897Z,31.05
2023-02-22T02:01:23.374Z,32.97
2023-02-22T02:01:46.414Z,33.88
2023-02-22T02:02:09.201Z,35.30
2023-02-22T02:02:31.807Z,35.28
2023-02-22T02:03:11.869Z,35.35
2023-02-22T02:03:40.024Z,36.17
2023-02-22T02:04:11.736Z,34.90
2023-02-22T02:04:37.345Z,34.72
2023-02-22T02:05:00.868Z,35.38
2023-02-22T02:05:25.101Z,34.05
2023-02-22T02:05:51.362Z,33.33
2023-02-22T02:06:15.870Z,33.83
2023-02-22T02:06:39.985Z,32.95
2023-02-22T02:07:13.378Z,34.08
2023-02-22T02:07:39.815Z,32.78
2023-02-22T02:08:28.348Z,31.50
2023-02-22T02:09:02.346Z,30.33
2023-02-22T02:10:14.602Z,29.02
2023-02-22T02:10:38.273Z,27.55
2023-02-22T02:11:09.436Z,29.17
2023-02-22T02:11:34.562Z,30.52
2023-02-22T02:12:02.926Z,34.40
2023-02-22T02:12:29.462Z,34.65
2023-02-22T02:12:54.360Z,32.75
2023-02-22T02:13:18.014Z,32.17
2023-02-22T02:13:40.743Z,29.02
2023-02-22T02:14:03.270Z,27.98
2023-02-22T02:14:25.813Z,28.20
2023-02-22T02:14:48.550Z,28.17
2023-02-22T02:15:32.717Z,27.67
2023-02-22T02:15:57.375Z,27.38
2023-02-22T02:16:22.084Z,27.70
2023-02-22T02:16:51.106Z,26.45
2023-02-22T02:17:19.358Z,26.33
2023-02-22T02:17:43.765Z,26.88
2023-02-22T02:18:14.806Z,27.13
2023-02-22T02:18:37.503Z,27.50
2023-02-22T02:19:00.259Z,28.13
2023-02-22T02:20:08.486Z,28.27
2023-02-22T02:20:55.808Z,26.27
2023-02-22T02:22:09.517Z,26.88
2023-02-22T02:22:54.441Z,27.90
2023-02-22T02:23:44.384Z,26.73
2023-02-22T02:24:59.375Z,26.42
2023-02-22T02:25:54.480Z,24.23
2023-02-22T02:26:44.480Z,23.60
2023-02-22T02:27:28.494Z,24.15
2023-02-22T02:28:35.764Z,24.88
2023-02-22T02:29:48.611Z,25.15
2023-02-22T02:30:45.040Z,26.98
2023-02-22T02:31:38.086Z,26.02
2023-02-22T02:32:24.310Z,26.45
2023-02-22T02:32:56.310Z,26.58
2023-02-22T02:33:28.581Z,26.77
2023-02-22T02:34:43.600Z,29.15
2023-02-22T02:35:21.867Z,30.80
2023-02-22T02:36:29.385Z,29.92
2023-02-22T02:37:07.322Z,30.88
2023-02-22T02:38:21.852Z,31.02
2023-02-22T02:38:59.727Z,29.70
2023-02-22T02:39:37.668Z,30.98
2023-02-22T02:40:23.282Z,32.25
2023-02-22T02:41:04.992Z,29.75
2023-02-22T02:41:53.895Z,30.95
2023-02-22T02:42:26.113Z,27.58
2023-02-22T02:43:12.810Z,29.65
2023-02-22T02:44:04.608Z,28.88
2023-02-22T02:44:33.992Z,28.50
2023-02-22T02:45:13.936Z,27.38
2023-02-22T02:46:29.679Z,25.48
2023-02-22T02:47:00.573Z,24.08
2023-02-22T02:47:33.057Z,23.58
2023-02-22T02:48:01.684Z,26.43
2023-02-22T02:48:31.617Z,27.30
2023-02-22T02:49:06.176Z,27.52
2023-02-22T02:50:10.880Z,27.83
2023-02-22T02:50:51.576Z,28.13
2023-02-22T02:51:17.832Z,28.23
2023-02-22T02:51:48.589Z,26.80
2023-02-22T02:52:15.287Z,26.98
2023-02-22T02:52:42.592Z,27.33
2023-02-22T02:53:11.501Z,27.75
2023-02-22T02:53:43.190Z,29.38
2023-02-22T02:54:08.739Z,30.48
2023-02-22T02:54:34.511Z,30.38
2023-02-22T02:55:01.294Z,30.20
2023-02-22T02:55:25.017Z,31.33
2023-02-22T02:55:47.822Z,32.17
2023-02-22T02:56:11.926Z,31.40
2023-02-22T02:56:36.135Z,32.40
2023-02-22T02:56:58.918Z,31.63
2023-02-22T02:57:21.417Z,32.63
2023-02-22T02:57:44.164Z,32.42
2023-02-22T02:58:09.715Z,33.20
2023-02-22T02:58:34.586Z,32.85
2023-02-22T02:58:57.445Z,32.20
2023-02-22T02:59:37.707Z,32.97
2023-02-22T03:00:00.297Z,31.60
2023-02-22T03:00:43.335Z,31.52
2023-02-22T03:01:06.263Z,28.92
2023-02-22T03:01:47.040Z,28.23
2023-02-22T03:02:55.537Z,27.35
2023-02-22T03:03:45.748Z,29.67
2023-02-22T03:04:33.702Z,30.33
2023-02-22T03:05:32.848Z,29.58
2023-02-22T03:06:16.693Z,29.42
2023-02-22T03:07:28.814Z,30.25
2023-02-22T03:08:09.013Z,32.55
2023-02-22T03:08:43.691Z,32.35
2023-02-22T03:09:29.484Z,31.15
2023-02-22T03:10:34.063Z,26.83
2023-02-22T03:11:24.259Z,23.67
2023-02-22T03:12:06.080Z,24.50
2023-02-22T03:12:49.920Z,24.52
2023-02-22T03:13:50.304Z,25.60
2023-02-22T03:14:49.022Z,23.73
2023-02-22T03:15:35.241Z,24.42
2023-02-22T03:16:28.720Z,24.42
2023-02-22T03:17:16.414Z,23.60
2023-02-22T03:18:09.683Z,24.90
2023-02-22T03:18:56.739Z,25.25
2023-02-22T03:19:28.672Z,25.58
2023-02-22T03:20:12.675Z,24.90
2023-02-22T03:20:59.899Z,24.73
2023-02-22T03:21:53.609Z,24.58
2023-02-22T03:22:55.867Z,22.98
2023-02-22T03:23:38.513Z,23.73
2023-02-22T03:24:12.800Z,24.02
2023-02-22T03:24:55.216Z,23.40
2023-02-22T03:25:40.620Z,24.02
2023-02-22T03:26:16.450Z,23.77
2023-02-22T03:27:03.269Z,24.75
2023-02-22T03:27:43.902Z,24.27
2023-02-22T03:28:15.941Z,24.23
2023-02-22T03:28:44.522Z,25.40
2023-02-22T03:29:13.048Z,24.65
2023-02-22T03:29:43.962Z,24.77
2023-02-22T03:30:29.391Z,24.45
2023-02-22T03:31:13.776Z,23.88
2023-02-22T03:32:04.240Z,22.92
2023-02-22T03:32:43.180Z,22.33
2023-02-22T03:33:20.834Z,21.98
2023-02-22T03:34:13.702Z,22.60
2023-02-22T03:34:52.932Z,21.92
2023-02-22T03:35:28.700Z,23.30
2023-02-22T03:36:00.358Z,23.00
2023-02-22T03:36:34.241Z,22.03
2023-02-22T03:37:15.287Z,21.60
2023-02-22T03:37:47.850Z,22.92
2023-02-22T03:38:21.338Z,22.08
2023-02-22T03:38:48.184Z,22.55
2023-02-22T03:39:18.698Z,21.65
2023-02-22T03:39:47.679Z,22.63
2023-02-22T03:40:26.288Z,22.35
2023-02-22T03:40:59.566Z,23.98
2023-02-22T03:41:27.361Z,22.88
2023-02-22T03:41:53.757Z,23.33
2023-02-22T03:42:32.857Z,23.77
2023-02-22T03:43:15.964Z,23.30
2023-02-22T03:43:51.237Z,23.90
2023-02-22T03:44:23.187Z,24.30
2023-02-22T03:44:51.716Z,25.50
2023-02-22T03:45:25.381Z,24.05
2023-02-22T03:45:51.906Z,24.75
2023-02-22T03:46:19.650Z,23.83
2023-02-22T03:46:48.748Z,25.42
2023-02-22T03:47:23.430Z,28.50
2023-02-22T03:48:03.996Z,29.13
2023-02-22T03:48:49.370Z,33.13
2023-02-22T03:49:24.447Z,25.52
2023-02-22T03:50:31.481Z,26.48
2023-02-22T03:50:54.456Z,27.17
2023-02-22T03:51:19.127Z,25.92
2023-02-22T03:51:48.773Z,24.65
2023-02-22T03:52:13.091Z,24.88
2023-02-22T03:52:38.289Z,25.05
2023-02-22T03:53:07.783Z,23.55
2023-02-22T03:53:37.493Z,23.63
2023-02-22T03:54:06.661Z,23.38
2023-02-22T03:54:35.409Z,24.25
2023-02-22T03:55:01.151Z,24.50
2023-02-22T03:55:23.998Z,22.60
2023-02-22T03:55:55.875Z,23.40
2023-02-22T03:56:36.580Z,23.13
2023-02-22T03:57:12.896Z,24.52
2023-02-22T03:58:13.329Z,25.13
2023-02-22T03:58:40.807Z,25.75
2023-02-22T03:59:09.733Z,25.42
2023-02-22T03:59:32.950Z,24.60
2023-02-22T03:59:56.602Z,25.02
2023-02-22T04:00:32.690Z,25.58
2023-02-22T04:00:56.394Z,24.58
2023-02-22T04:01:20.310Z,25.45
2023-02-22T04:01:43.040Z,25.33
2023-02-22T04:02:05.574Z,25.45
2023-02-22T04:02:28.201Z,26.00
2023-02-22T04:02:53.064Z,29.48
2023-02-22T04:03:18.060Z,30.45
2023-02-22T04:03:42.348Z,27.25
2023-02-22T04:04:05.396Z,27.40
2023-02-22T04:04:31.631Z,26.23
2023-02-22T04:04:54.927Z,26.27
2023-02-22T04:05:17.735Z,25.48
2023-02-22T04:05:40.435Z,25.77
2023-02-22T04:06:04.051Z,25.80
2023-02-22T04:06:29.708Z,26.30
2023-02-22T04:06:54.477Z,25.17
2023-02-22T04:07:19.191Z,25.00
2023-02-22T04:07:44.328Z,25.58
2023-02-22T04:08:08.181Z,24.75
2023-02-22T04:08:31.729Z,25.05
2023-02-22T04:08:55.433Z,24.48
2023-02-22T04:09:20.474Z,25.35
2023-02-22T04:09:43.575Z,25.15
2023-02-22T04:10:10.876Z,25.23
2023-02-22T04:10:54.883Z,25.20
2023-02-22T04:11:21.168Z,24.40
2023-02-22T04:11:43.946Z,24.67
2023-02-22T04:12:07.780Z,24.80
2023-02-22T04:12:45.753Z,24.45
2023-02-22T04:13:10.564Z,24.95
2023-02-22T04:13:35.919Z,25.38
2023-02-22T04:13:59.584Z,25.33
2023-02-22T04:14:23.875Z,25.50
2023-02-22T04:14:46.690Z,24.95
2023-02-22T04:15:14.613Z,25.42
2023-02-22T04:15:40.473Z,26.45
2023-02-22T04:16:06.457Z,25.70
2023-02-22T04:16:31.158Z,26.45
2023-02-22T04:16:55.811Z,25.88
2023-02-22T04:17:22.158Z,25.27
2023-02-22T04:17:45.881Z,26.58
2023-02-22T04:18:10.384Z,26.98
2023-02-22T04:18:33.052Z,27.00
2023-02-22T04:18:56.287Z,26.98
2023-02-22T04:19:19.437Z,25.75
2023-02-22T04:19:45.989Z,26.55
2023-02-22T04:20:10.594Z,25.75
2023-02-22T04:20:40.483Z,26.10
2023-02-22T04:21:12.516Z,25.55
2023-02-22T04:21:39.227Z,25.67
2023-02-22T04:22:09.391Z,25.25
2023-02-22T04:22:32.153Z,26.33
2023-02-22T04:22:57.461Z,26.77
2023-02-22T04:23:19.988Z,26.33
2023-02-22T04:23:43.700Z,37.70
2023-02-22T04:24:07.638Z,40.90
2023-02-22T04:24:30.680Z,29.30
2023-02-22T04:24:54.020Z,27.83
2023-02-22T04:25:19.100Z,27.67
2023-02-22T04:25:43.740Z,26.98
2023-02-22T04:26:07.082Z,26.40
2023-02-22T04:26:29.813Z,25.88
2023-02-22T04:26:55.581Z,25.25
2023-02-22T04:27:18.909Z,25.65
2023-02-22T04:27:42.681Z,25.25
2023-02-22T04:28:05.853Z,24.30
2023-02-22T04:28:38.412Z,24.65
2023-02-22T04:29:11.567Z,25.17
2023-02-22T04:29:37.104Z,23.50
2023-02-22T04:30:03.408Z,21.50
2023-02-22T04:30:32.748Z,22.80
2023-02-22T04:30:57.896Z,22.77
2023-02-22T04:31:21.053Z,22.63
2023-02-22T04:31:46.722Z,21.65
2023-02-22T04:32:09.586Z,22.08
2023-02-22T04:32:32.225Z,23.25
2023-02-22T04:32:55.284Z,22.63
2023-02-22T04:33:18.760Z,23.40
2023-02-22T04:33:42.802Z,23.83
2023-02-22T04:34:08.258Z,23.75
2023-02-22T04:34:34.585Z,24.20
2023-02-22T04:34:58.283Z,23.45
2023-02-22T04:35:21.548Z,23.00
2023-02-22T04:35:44.935Z,24.23
2023-02-22T04:36:11.020Z,23.42
2023-02-22T04:36:34.390Z,24.35
2023-02-22T04:36:58.028Z,24.55
2023-02-22T04:37:20.912Z,25.08
2023-02-22T04:37:43.934Z,24.58
2023-02-22T04:38:09.484Z,24.33
2023-02-22T04:38:35.341Z,24.48
2023-02-22T04:38:59.768Z,29.27
2023-02-22T04:39:24.127Z,31.08
2023-02-22T04:39:47.484Z,31.27
2023-02-22T04:40:11.812Z,31.55
2023-02-22T04:40:34.374Z,32.40
2023-02-22T04:40:58.815Z,32.60
2023-02-22T04:41:25.247Z,31.27
2023-02-22T04:41:55.681Z,28.38
2023-02-22T04:42:18.585Z,26.63
2023-02-22T04:42:45.676Z,26.48
2023-02-22T04:43:08.410Z,25.98
2023-02-22T04:43:31.156Z,26.40
2023-02-22T04:44:06.349Z,28.92
2023-02-22T04:44:31.280Z,27.05
2023-02-22T04:44:54.665Z,27.27
2023-02-22T04:45:23.887Z,26.42
2023-02-22T04:45:48.128Z,27.45
2023-02-22T04:46:10.762Z,28.00
2023-02-22T04:46:33.351Z,25.80
2023-02-22T04:46:57.800Z,23.52
2023-02-22T04:47:20.968Z,23.85
2023-02-22T04:47:45.829Z,24.80
2023-02-22T04:48:09.190Z,23.98
2023-02-22T04:48:32.232Z,25.13
2023-02-22T04:48:55.245Z,23.48
2023-02-22T04:49:21.041Z,22.23
2023-02-22T04:49:45.922Z,22.80
2023-02-22T04:50:12.772Z,22.17
2023-02-22T04:50:37.972Z,22.42
2023-02-22T04:51:00.777Z,22.08
2023-02-22T04:51:26.665Z,21.60
2023-02-22T04:52:10.380Z,21.27
2023-02-22T04:52:35.928Z,21.42
2023-02-22T04:53:00.251Z,21.00
2023-02-22T04:53:25.255Z,21.83
2023-02-22T04:53:48.563Z,21.70
2023-02-22T04:54:14.455Z,23.20
2023-02-22T04:54:40.257Z,24.55
2023-02-22T04:55:04.732Z,25.15
2023-02-22T04:55:29.146Z,22.63
2023-02-22T04:55:52.734Z,23.00
2023-02-22T04:56:25.034Z,24.90
2023-02-22T04:56:47.680Z,24.13
2023-02-22T04:57:13.452Z,23.77
2023-02-22T04:57:40.364Z,23.63
2023-02-22T04:58:03.882Z,24.10
2023-02-22T04:58:26.674Z,23.83
2023-02-22T04:58:49.349Z,22.93
2023-02-22T04:59:12.163Z,21.25
2023-02-22T04:59:39.425Z,22.13
2023-02-22T05:00:02.567Z,23.40
2023-02-22T05:00:32.997Z,24.90
2023-02-22T05:00:58.079Z,27.30
2023-02-22T05:01:24.724Z,27.33
2023-02-22T05:01:47.581Z,25.30
2023-02-22T05:02:10.260Z,24.02
2023-02-22T05:02:33.348Z,24.73
2023-02-22T05:02:56.092Z,23.83
2023-02-22T05:03:18.702Z,23.02
2023-02-22T05:03:41.421Z,24.13
2023-02-22T05:04:08.684Z,23.25
2023-02-22T05:04:31.241Z,23.15
2023-02-22T05:04:54.006Z,21.73
2023-02-22T05:05:22.344Z,22.13
2023-02-22T05:05:45.436Z,22.50
2023-02-22T05:06:08.330Z,22.23
2023-02-22T05:06:30.965Z,22.60
2023-02-22T05:06:55.067Z,21.95
2023-02-22T05:07:43.311Z,21.65
2023-02-22T05:09:44.640Z,21.80
2023-02-22T05:10:07.800Z,21.75
2023-02-22T05:10:30.420Z,23.02
2023-02-22T05:10:54.973Z,24.35
2023-02-22T05:11:17.855Z,23.42
2023-02-22T05:11:41.000Z,24.13
2023-02-22T05:12:04.194Z,24.25
2023-02-22T05:12:28.309Z,24.48
2023-02-22T05:12:52.556Z,26.42
2023-02-22T05:13:15.202Z,25.08
2023-02-22T05:13:37.713Z,25.45
2023-02-22T05:14:00.903Z,26.20
2023-02-22T05:14:27.085Z,25.92
2023-02-22T05:14:50.937Z,26.13
2023-02-22T05:15:25.386Z,25.20
2023-02-22T05:15:48.840Z,26.52
2023-02-22T05:16:11.689Z,25.88
2023-02-22T05:16:34.287Z,26.83
2023-02-22T05:16:58.651Z,26.33
2023-02-22T05:17:26.146Z,26.13
2023-02-22T05:23:28.911Z,266.40
